sensor_id;sensor_type;location;lat;lon;timestamp;P1;durP1;ratioP1;P2;durP2;ratioP2
17935;SDS011;9093;52.062;4.508;2022-12-18T00:01:38;22.52;;;9.70;;
17935;SDS011;9093;52.062;4.508;2022-12-18T00:04:20;18.27;;;8.95;;
17935;SDS011;9093;52.062;4.508;2022-12-18T00:07:02;32.92;;;9.30;;
17935;SDS011;9093;52.062;4.508;2022-12-18T00:09:42;16.58;;;7.75;;
17935;SDS011;9093;52.062;4.508;2022-12-18T00:12:23;16.95;;;8.65;;
17935;SDS011;9093;52.062;4.508;2022-12-18T00:15:03;17.30;;;8.25;;
17935;SDS011;9093;52.062;4.508;2022-12-18T00:17:44;24.60;;;8.85;;
17935;SDS011;9093;52.062;4.508;2022-12-18T00:20:24;17.45;;;8.18;;
17935;SDS011;9093;52.062;4.508;2022-12-18T00:23:06;24.55;;;7.28;;
17935;SDS011;9093;52.062;4.508;2022-12-18T00:25:47;16.52;;;8.27;;
17935;SDS011;9093;52.062;4.508;2022-12-18T00:28:27;24.48;;;9.05;;
17935;SDS011;9093;52.062;4.508;2022-12-18T00:31:08;33.10;;;12.23;;
17935;SDS011;9093;52.062;4.508;2022-12-18T00:33:53;33.33;;;12.30;;
17935;SDS011;9093;52.062;4.508;2022-12-18T00:36:34;42.80;;;9.90;;
17935;SDS011;9093;52.062;4.508;2022-12-18T00:39:15;26.92;;;9.23;;
17935;SDS011;9093;52.062;4.508;2022-12-18T00:41:55;28.20;;;7.15;;
17935;SDS011;9093;52.062;4.508;2022-12-18T00:44:55;36.75;;;12.50;;
17935;SDS011;9093;52.062;4.508;2022-12-18T00:47:36;16.30;;;8.43;;
17935;SDS011;9093;52.062;4.508;2022-12-18T00:50:16;33.05;;;10.60;;
17935;SDS011;9093;52.062;4.508;2022-12-18T00:52:57;26.45;;;10.65;;
17935;SDS011;9093;52.062;4.508;2022-12-18T00:55:37;36.03;;;9.63;;
17935;SDS011;9093;52.062;4.508;2022-12-18T00:58:19;22.90;;;9.38;;
17935;SDS011;9093;52.062;4.508;2022-12-18T01:00:59;27.95;;;10.02;;
17935;SDS011;9093;52.062;4.508;2022-12-18T01:03:39;39.70;;;10.57;;
17935;SDS011;9093;52.062;4.508;2022-12-18T01:06:20;19.92;;;9.65;;
17935;SDS011;9093;52.062;4.508;2022-12-18T01:09:00;19.67;;;8.00;;
17935;SDS011;9093;52.062;4.508;2022-12-18T01:11:40;22.95;;;10.98;;
17935;SDS011;9093;52.062;4.508;2022-12-18T01:14:21;23.42;;;8.40;;
17935;SDS011;9093;52.062;4.508;2022-12-18T01:17:01;18.45;;;9.02;;
17935;SDS011;9093;52.062;4.508;2022-12-18T01:19:52;41.03;;;9.60;;
17935;SDS011;9093;52.062;4.508;2022-12-18T01:22:35;24.10;;;9.15;;
17935;SDS011;9093;52.062;4.508;2022-12-18T01:25:15;39.65;;;10.25;;
17935;SDS011;9093;52.062;4.508;2022-12-18T01:27:56;36.10;;;11.30;;
17935;SDS011;9093;52.062;4.508;2022-12-18T01:30:36;33.90;;;11.48;;
17935;SDS011;9093;52.062;4.508;2022-12-18T01:33:17;21.73;;;9.90;;
17935;SDS011;9093;52.062;4.508;2022-12-18T01:35:57;32.35;;;11.77;;
17935;SDS011;9093;52.062;4.508;2022-12-18T01:38:37;30.88;;;9.05;;
17935;SDS011;9093;52.062;4.508;2022-12-18T01:41:19;17.83;;;9.57;;
17935;SDS011;9093;52.062;4.508;2022-12-18T01:44:46;21.27;;;9.40;;
17935;SDS011;9093;52.062;4.508;2022-12-18T01:50:21;25.27;;;8.85;;
17935;SDS011;9093;52.062;4.508;2022-12-18T01:53:10;38.17;;;9.27;;
17935;SDS011;9093;52.062;4.508;2022-12-18T01:55:56;24.23;;;9.57;;
17935;SDS011;9093;52.062;4.508;2022-12-18T02:01:31;27.23;;;8.88;;
17935;SDS011;9093;52.062;4.508;2022-12-18T02:04:20;23.27;;;9.00;;
17935;SDS011;9093;52.062;4.508;2022-12-18T02:07:09;20.77;;;10.77;;
17935;SDS011;9093;52.062;4.508;2022-12-18T02:13:27;28.02;;;8.90;;
17935;SDS011;9093;52.062;4.508;2022-12-18T02:16:31;21.02;;;8.52;;
17935;SDS011;9093;52.062;4.508;2022-12-18T02:19:22;28.48;;;7.20;;
17935;SDS011;9093;52.062;4.508;2022-12-18T02:22:24;13.15;;;6.60;;
17935;SDS011;9093;52.062;4.508;2022-12-18T02:28:06;14.88;;;6.22;;
17935;SDS011;9093;52.062;4.508;2022-12-18T02:30:51;13.68;;;7.07;;
17935;SDS011;9093;52.062;4.508;2022-12-18T02:33:36;24.58;;;6.65;;
17935;SDS011;9093;52.062;4.508;2022-12-18T02:36:17;18.40;;;8.18;;
17935;SDS011;9093;52.062;4.508;2022-12-18T02:39:00;23.15;;;7.78;;
17935;SDS011;9093;52.062;4.508;2022-12-18T02:41:42;14.82;;;8.60;;
17935;SDS011;9093;52.062;4.508;2022-12-18T02:44:25;11.15;;;7.07;;
17935;SDS011;9093;52.062;4.508;2022-12-18T02:47:05;27.38;;;6.28;;
17935;SDS011;9093;52.062;4.508;2022-12-18T02:52:55;21.00;;;6.25;;
17935;SDS011;9093;52.062;4.508;2022-12-18T02:59:05;21.80;;;8.70;;
17935;SDS011;9093;52.062;4.508;2022-12-18T03:01:59;10.13;;;5.53;;
17935;SDS011;9093;52.062;4.508;2022-12-18T03:05:09;18.10;;;7.18;;
17935;SDS011;9093;52.062;4.508;2022-12-18T03:08:06;16.98;;;6.13;;
17935;SDS011;9093;52.062;4.508;2022-12-18T03:10:55;26.38;;;7.40;;
17935;SDS011;9093;52.062;4.508;2022-12-18T03:16:21;15.23;;;6.67;;
17935;SDS011;9093;52.062;4.508;2022-12-18T03:19:06;24.00;;;9.55;;
17935;SDS011;9093;52.062;4.508;2022-12-18T03:21:51;15.13;;;8.00;;
17935;SDS011;9093;52.062;4.508;2022-12-18T03:24:34;12.18;;;6.68;;
17935;SDS011;9093;52.062;4.508;2022-12-18T03:27:19;26.40;;;7.28;;
17935;SDS011;9093;52.062;4.508;2022-12-18T03:30:07;11.25;;;6.68;;
17935;SDS011;9093;52.062;4.508;2022-12-18T03:35:35;17.27;;;8.30;;
17935;SDS011;9093;52.062;4.508;2022-12-18T03:38:19;12.13;;;7.55;;
17935;SDS011;9093;52.062;4.508;2022-12-18T03:41:07;22.77;;;6.60;;
17935;SDS011;9093;52.062;4.508;2022-12-18T03:43:52;15.50;;;8.43;;
17935;SDS011;9093;52.062;4.508;2022-12-18T03:46:54;18.88;;;5.15;;
17935;SDS011;9093;52.062;4.508;2022-12-18T03:49:55;24.08;;;6.22;;
17935;SDS011;9093;52.062;4.508;2022-12-18T03:52:51;19.00;;;7.95;;
17935;SDS011;9093;52.062;4.508;2022-12-18T03:55:32;19.83;;;8.30;;
17935;SDS011;9093;52.062;4.508;2022-12-18T03:58:15;17.98;;;7.35;;
17935;SDS011;9093;52.062;4.508;2022-12-18T04:01:00;20.58;;;7.32;;
17935;SDS011;9093;52.062;4.508;2022-12-18T04:03:43;17.80;;;5.20;;
17935;SDS011;9093;52.062;4.508;2022-12-18T04:06:25;23.10;;;7.35;;
17935;SDS011;9093;52.062;4.508;2022-12-18T04:09:07;17.08;;;7.57;;
17935;SDS011;9093;52.062;4.508;2022-12-18T04:11:48;12.10;;;6.82;;
17935;SDS011;9093;52.062;4.508;2022-12-18T04:14:28;17.52;;;7.55;;
17935;SDS011;9093;52.062;4.508;2022-12-18T04:17:08;23.73;;;6.70;;
17935;SDS011;9093;52.062;4.508;2022-12-18T04:19:49;10.30;;;6.63;;
17935;SDS011;9093;52.062;4.508;2022-12-18T04:22:29;21.52;;;7.70;;
17935;SDS011;9093;52.062;4.508;2022-12-18T04:25:09;15.80;;;6.43;;
17935;SDS011;9093;52.062;4.508;2022-12-18T04:27:50;30.67;;;6.97;;
17935;SDS011;9093;52.062;4.508;2022-12-18T04:30:30;21.92;;;4.32;;
17935;SDS011;9093;52.062;4.508;2022-12-18T04:33:11;26.88;;;8.68;;
17935;SDS011;9093;52.062;4.508;2022-12-18T04:35:52;7.88;;;5.65;;
17935;SDS011;9093;52.062;4.508;2022-12-18T04:38:32;11.95;;;4.93;;
17935;SDS011;9093;52.062;4.508;2022-12-18T04:41:13;9.90;;;6.82;;
17935;SDS011;9093;52.062;4.508;2022-12-18T04:43:53;25.63;;;8.50;;
17935;SDS011;9093;52.062;4.508;2022-12-18T04:46:33;12.57;;;7.03;;
17935;SDS011;9093;52.062;4.508;2022-12-18T04:49:14;25.38;;;7.38;;
17935;SDS011;9093;52.062;4.508;2022-12-18T04:51:56;9.45;;;4.85;;
17935;SDS011;9093;52.062;4.508;2022-12-18T04:54:36;16.80;;;7.10;;
17935;SDS011;9093;52.062;4.508;2022-12-18T04:57:19;20.98;;;9.48;;
17935;SDS011;9093;52.062;4.508;2022-12-18T05:00:03;11.55;;;5.90;;
17935;SDS011;9093;52.062;4.508;2022-12-18T05:02:44;25.60;;;7.28;;
17935;SDS011;9093;52.062;4.508;2022-12-18T05:05:24;12.73;;;6.85;;
17935;SDS011;9093;52.062;4.508;2022-12-18T05:08:05;12.35;;;5.70;;
17935;SDS011;9093;52.062;4.508;2022-12-18T05:10:45;17.48;;;8.70;;
17935;SDS011;9093;52.062;4.508;2022-12-18T05:13:26;12.90;;;6.38;;
17935;SDS011;9093;52.062;4.508;2022-12-18T05:16:07;25.00;;;8.85;;
17935;SDS011;9093;52.062;4.508;2022-12-18T05:18:47;9.38;;;5.00;;
17935;SDS011;9093;52.062;4.508;2022-12-18T05:21:27;23.50;;;7.35;;
17935;SDS011;9093;52.062;4.508;2022-12-18T05:24:08;8.85;;;5.15;;
17935;SDS011;9093;52.062;4.508;2022-12-18T05:26:48;16.50;;;6.57;;
17935;SDS011;9093;52.062;4.508;2022-12-18T05:29:28;10.98;;;6.88;;
17935;SDS011;9093;52.062;4.508;2022-12-18T05:32:09;12.00;;;5.68;;
17935;SDS011;9093;52.062;4.508;2022-12-18T05:34:49;18.58;;;8.85;;
17935;SDS011;9093;52.062;4.508;2022-12-18T05:37:29;15.63;;;5.93;;
17935;SDS011;9093;52.062;4.508;2022-12-18T05:40:10;10.98;;;5.03;;
17935;SDS011;9093;52.062;4.508;2022-12-18T05:42:51;11.80;;;6.68;;
17935;SDS011;9093;52.062;4.508;2022-12-18T05:45:31;23.90;;;7.80;;
17935;SDS011;9093;52.062;4.508;2022-12-18T05:48:12;11.90;;;5.95;;
17935;SDS011;9093;52.062;4.508;2022-12-18T05:50:55;14.65;;;6.00;;
17935;SDS011;9093;52.062;4.508;2022-12-18T05:53:36;15.80;;;7.85;;
17935;SDS011;9093;52.062;4.508;2022-12-18T05:56:18;12.90;;;5.68;;
17935;SDS011;9093;52.062;4.508;2022-12-18T05:58:59;13.02;;;6.15;;
17935;SDS011;9093;52.062;4.508;2022-12-18T06:01:40;14.23;;;6.47;;
17935;SDS011;9093;52.062;4.508;2022-12-18T06:04:20;12.70;;;6.10;;
17935;SDS011;9093;52.062;4.508;2022-12-18T06:07:00;16.83;;;7.57;;
17935;SDS011;9093;52.062;4.508;2022-12-18T06:09:41;15.45;;;8.32;;
17935;SDS011;9093;52.062;4.508;2022-12-18T06:12:21;16.15;;;6.25;;
17935;SDS011;9093;52.062;4.508;2022-12-18T06:15:01;16.55;;;6.38;;
17935;SDS011;9093;52.062;4.508;2022-12-18T06:17:42;15.45;;;9.05;;
17935;SDS011;9093;52.062;4.508;2022-12-18T06:20:22;24.30;;;8.43;;
17935;SDS011;9093;52.062;4.508;2022-12-18T06:23:02;29.17;;;9.30;;
17935;SDS011;9093;52.062;4.508;2022-12-18T06:25:43;15.40;;;7.20;;
17935;SDS011;9093;52.062;4.508;2022-12-18T06:28:23;8.00;;;5.57;;
17935;SDS011;9093;52.062;4.508;2022-12-18T06:31:04;14.60;;;6.90;;
17935;SDS011;9093;52.062;4.508;2022-12-18T06:33:45;11.57;;;6.78;;
17935;SDS011;9093;52.062;4.508;2022-12-18T06:36:25;10.25;;;5.32;;
17935;SDS011;9093;52.062;4.508;2022-12-18T06:39:05;16.55;;;7.15;;
17935;SDS011;9093;52.062;4.508;2022-12-18T06:41:45;12.60;;;7.40;;
17935;SDS011;9093;52.062;4.508;2022-12-18T06:44:26;13.80;;;6.30;;
17935;SDS011;9093;52.062;4.508;2022-12-18T06:47:06;16.38;;;7.65;;
17935;SDS011;9093;52.062;4.508;2022-12-18T06:49:46;8.57;;;6.13;;
17935;SDS011;9093;52.062;4.508;2022-12-18T06:52:26;13.23;;;4.72;;
17935;SDS011;9093;52.062;4.508;2022-12-18T06:55:07;8.23;;;5.45;;
17935;SDS011;9093;52.062;4.508;2022-12-18T06:57:49;9.85;;;5.80;;
17935;SDS011;9093;52.062;4.508;2022-12-18T07:00:29;9.55;;;4.72;;
17935;SDS011;9093;52.062;4.508;2022-12-18T07:03:09;24.27;;;11.48;;
17935;SDS011;9093;52.062;4.508;2022-12-18T07:05:50;5.90;;;3.28;;
17935;SDS011;9093;52.062;4.508;2022-12-18T07:08:31;12.45;;;6.50;;
17935;SDS011;9093;52.062;4.508;2022-12-18T07:11:12;10.40;;;4.68;;
17935;SDS011;9093;52.062;4.508;2022-12-18T07:13:52;13.48;;;5.22;;
17935;SDS011;9093;52.062;4.508;2022-12-18T07:16:33;12.98;;;5.03;;
17935;SDS011;9093;52.062;4.508;2022-12-18T07:19:13;12.90;;;5.03;;
17935;SDS011;9093;52.062;4.508;2022-12-18T07:21:54;17.08;;;6.57;;
17935;SDS011;9093;52.062;4.508;2022-12-18T07:24:34;14.13;;;4.00;;
17935;SDS011;9093;52.062;4.508;2022-12-18T07:27:14;9.85;;;5.47;;
17935;SDS011;9093;52.062;4.508;2022-12-18T07:29:55;19.15;;;5.03;;
17935;SDS011;9093;52.062;4.508;2022-12-18T07:32:35;12.82;;;6.22;;
17935;SDS011;9093;52.062;4.508;2022-12-18T07:35:15;14.40;;;5.85;;
17935;SDS011;9093;52.062;4.508;2022-12-18T07:38:02;15.57;;;6.15;;
17935;SDS011;9093;52.062;4.508;2022-12-18T07:40:42;12.45;;;5.97;;
17935;SDS011;9093;52.062;4.508;2022-12-18T07:43:22;7.80;;;5.20;;
17935;SDS011;9093;52.062;4.508;2022-12-18T07:46:05;9.23;;;5.57;;
17935;SDS011;9093;52.062;4.508;2022-12-18T07:48:47;8.35;;;4.53;;
17935;SDS011;9093;52.062;4.508;2022-12-18T07:51:27;7.32;;;4.22;;
17935;SDS011;9093;52.062;4.508;2022-12-18T07:54:08;5.97;;;4.00;;
17935;SDS011;9093;52.062;4.508;2022-12-18T07:56:49;13.15;;;4.32;;
17935;SDS011;9093;52.062;4.508;2022-12-18T07:59:29;9.95;;;5.22;;
17935;SDS011;9093;52.062;4.508;2022-12-18T08:02:09;12.40;;;5.55;;
17935;SDS011;9093;52.062;4.508;2022-12-18T08:04:50;6.38;;;4.28;;
17935;SDS011;9093;52.062;4.508;2022-12-18T08:07:30;3.95;;;3.25;;
17935;SDS011;9093;52.062;4.508;2022-12-18T08:10:10;19.50;;;4.00;;
17935;SDS011;9093;52.062;4.508;2022-12-18T08:12:53;10.02;;;6.13;;
17935;SDS011;9093;52.062;4.508;2022-12-18T08:15:33;7.10;;;3.95;;
17935;SDS011;9093;52.062;4.508;2022-12-18T08:18:14;7.85;;;4.20;;
17935;SDS011;9093;52.062;4.508;2022-12-18T08:20:54;11.95;;;4.55;;
17935;SDS011;9093;52.062;4.508;2022-12-18T08:23:35;5.90;;;4.93;;
17935;SDS011;9093;52.062;4.508;2022-12-18T08:26:16;9.70;;;4.63;;
17935;SDS011;9093;52.062;4.508;2022-12-18T08:28:57;6.47;;;3.92;;
17935;SDS011;9093;52.062;4.508;2022-12-18T08:34:19;8.60;;;4.72;;
17935;SDS011;9093;52.062;4.508;2022-12-18T08:36:59;16.13;;;5.05;;
17935;SDS011;9093;52.062;4.508;2022-12-18T08:39:40;10.30;;;4.50;;
17935;SDS011;9093;52.062;4.508;2022-12-18T08:42:20;6.28;;;4.82;;
17935;SDS011;9093;52.062;4.508;2022-12-18T08:45:19;12.05;;;5.28;;
17935;SDS011;9093;52.062;4.508;2022-12-18T08:47:59;7.93;;;3.88;;
17935;SDS011;9093;52.062;4.508;2022-12-18T08:50:39;7.95;;;4.43;;
17935;SDS011;9093;52.062;4.508;2022-12-18T08:53:20;10.48;;;4.78;;
17935;SDS011;9093;52.062;4.508;2022-12-18T08:56:00;9.02;;;5.38;;
17935;SDS011;9093;52.062;4.508;2022-12-18T08:58:41;3.45;;;2.90;;
17935;SDS011;9093;52.062;4.508;2022-12-18T09:01:22;7.50;;;5.65;;
17935;SDS011;9093;52.062;4.508;2022-12-18T09:04:02;9.48;;;5.13;;
17935;SDS011;9093;52.062;4.508;2022-12-18T09:06:43;10.07;;;4.45;;
17935;SDS011;9093;52.062;4.508;2022-12-18T09:09:23;11.63;;;5.07;;
17935;SDS011;9093;52.062;4.508;2022-12-18T09:12:03;5.65;;;4.75;;
17935;SDS011;9093;52.062;4.508;2022-12-18T09:14:44;9.18;;;4.88;;
17935;SDS011;9093;52.062;4.508;2022-12-18T09:17:24;8.20;;;4.10;;
17935;SDS011;9093;52.062;4.508;2022-12-18T09:20:04;6.38;;;3.53;;
17935;SDS011;9093;52.062;4.508;2022-12-18T09:22:45;11.18;;;6.07;;
17935;SDS011;9093;52.062;4.508;2022-12-18T09:25:25;6.05;;;3.13;;
17935;SDS011;9093;52.062;4.508;2022-12-18T09:28:15;21.10;;;5.50;;
17935;SDS011;9093;52.062;4.508;2022-12-18T09:30:59;10.90;;;4.93;;
17935;SDS011;9093;52.062;4.508;2022-12-18T09:33:44;5.22;;;2.65;;
17935;SDS011;9093;52.062;4.508;2022-12-18T09:36:27;5.25;;;4.75;;
17935;SDS011;9093;52.062;4.508;2022-12-18T09:39:07;9.82;;;4.72;;
17935;SDS011;9093;52.062;4.508;2022-12-18T09:41:52;8.35;;;3.75;;
17935;SDS011;9093;52.062;4.508;2022-12-18T09:44:41;6.60;;;3.15;;
17935;SDS011;9093;52.062;4.508;2022-12-18T09:47:30;8.43;;;2.60;;
17935;SDS011;9093;52.062;4.508;2022-12-18T09:50:33;6.40;;;4.53;;
17935;SDS011;9093;52.062;4.508;2022-12-18T09:53:19;10.40;;;5.20;;
17935;SDS011;9093;52.062;4.508;2022-12-18T09:56:04;14.45;;;6.72;;
17935;SDS011;9093;52.062;4.508;2022-12-18T09:58:46;8.73;;;4.03;;
17935;SDS011;9093;52.062;4.508;2022-12-18T10:01:33;12.35;;;6.35;;
17935;SDS011;9093;52.062;4.508;2022-12-18T10:04:13;23.17;;;6.82;;
17935;SDS011;9093;52.062;4.508;2022-12-18T10:07:05;8.48;;;4.40;;
17935;SDS011;9093;52.062;4.508;2022-12-18T10:10:11;7.18;;;3.50;;
17935;SDS011;9093;52.062;4.508;2022-12-18T10:13:33;7.20;;;4.30;;
17935;SDS011;9093;52.062;4.508;2022-12-18T10:28:30;7.13;;;4.72;;
17935;SDS011;9093;52.062;4.508;2022-12-18T10:31:14;6.25;;;4.40;;
17935;SDS011;9093;52.062;4.508;2022-12-18T10:34:12;11.38;;;5.15;;
17935;SDS011;9093;52.062;4.508;2022-12-18T10:36:53;7.78;;;5.30;;
17935;SDS011;9093;52.062;4.508;2022-12-18T10:39:33;10.07;;;4.68;;
17935;SDS011;9093;52.062;4.508;2022-12-18T10:42:17;14.98;;;4.68;;
17935;SDS011;9093;52.062;4.508;2022-12-18T10:45:05;9.30;;;5.32;;
17935;SDS011;9093;52.062;4.508;2022-12-18T10:47:57;5.93;;;4.10;;
17935;SDS011;9093;52.062;4.508;2022-12-18T10:50:38;12.50;;;5.10;;
17935;SDS011;9093;52.062;4.508;2022-12-18T10:53:22;11.00;;;4.90;;
17935;SDS011;9093;52.062;4.508;2022-12-18T10:56:05;7.47;;;4.60;;
17935;SDS011;9093;52.062;4.508;2022-12-18T10:58:54;20.95;;;6.53;;
17935;SDS011;9093;52.062;4.508;2022-12-18T11:04:31;12.88;;;5.18;;
17935;SDS011;9093;52.062;4.508;2022-12-18T11:07:12;12.18;;;4.35;;
17935;SDS011;9093;52.062;4.508;2022-12-18T11:10:01;7.57;;;5.70;;
17935;SDS011;9093;52.062;4.508;2022-12-18T11:12:42;16.45;;;6.18;;
17935;SDS011;9093;52.062;4.508;2022-12-18T11:15:26;7.90;;;4.20;;
17935;SDS011;9093;52.062;4.508;2022-12-18T11:18:16;7.60;;;5.35;;
17935;SDS011;9093;52.062;4.508;2022-12-18T11:21:09;10.30;;;5.22;;
17935;SDS011;9093;52.062;4.508;2022-12-18T11:23:53;5.68;;;3.95;;
17935;SDS011;9093;52.062;4.508;2022-12-18T11:26:34;10.18;;;4.75;;
17935;SDS011;9093;52.062;4.508;2022-12-18T11:29:16;10.70;;;5.35;;
17935;SDS011;9093;52.062;4.508;2022-12-18T11:34:58;11.90;;;5.60;;
17935;SDS011;9093;52.062;4.508;2022-12-18T11:37:44;6.38;;;4.15;;
17935;SDS011;9093;52.062;4.508;2022-12-18T11:40:33;13.93;;;6.10;;
17935;SDS011;9093;52.062;4.508;2022-12-18T11:43:17;10.13;;;4.85;;
17935;SDS011;9093;52.062;4.508;2022-12-18T11:46:15;11.00;;;5.03;;
17935;SDS011;9093;52.062;4.508;2022-12-18T11:49:03;17.52;;;5.20;;
17935;SDS011;9093;52.062;4.508;2022-12-18T11:54:34;24.35;;;3.55;;
17935;SDS011;9093;52.062;4.508;2022-12-18T12:00:20;10.02;;;5.65;;
17935;SDS011;9093;52.062;4.508;2022-12-18T12:03:15;12.95;;;6.07;;
17935;SDS011;9093;52.062;4.508;2022-12-18T12:21:33;10.05;;;7.20;;
17935;SDS011;9093;52.062;4.508;2022-12-18T12:30:18;8.88;;;5.40;;
17935;SDS011;9093;52.062;4.508;2022-12-18T12:36:04;15.10;;;6.10;;
17935;SDS011;9093;52.062;4.508;2022-12-18T12:38:55;7.22;;;4.90;;
17935;SDS011;9093;52.062;4.508;2022-12-18T12:41:40;11.45;;;5.40;;
17935;SDS011;9093;52.062;4.508;2022-12-18T12:44:47;9.30;;;4.75;;
17935;SDS011;9093;52.062;4.508;2022-12-18T12:47:36;9.55;;;4.07;;
17935;SDS011;9093;52.062;4.508;2022-12-18T12:50:20;10.57;;;5.40;;
17935;SDS011;9093;52.062;4.508;2022-12-18T12:53:05;10.87;;;4.93;;
17935;SDS011;9093;52.062;4.508;2022-12-18T12:55:48;12.05;;;4.78;;
17935;SDS011;9093;52.062;4.508;2022-12-18T13:13:09;8.45;;;5.70;;
17935;SDS011;9093;52.062;4.508;2022-12-18T13:16:05;5.78;;;4.35;;
17935;SDS011;9093;52.062;4.508;2022-12-18T13:18:50;6.65;;;3.85;;
17935;SDS011;9093;52.062;4.508;2022-12-18T13:21:33;7.88;;;4.82;;
17935;SDS011;9093;52.062;4.508;2022-12-18T13:24:15;12.38;;;4.55;;
17935;SDS011;9093;52.062;4.508;2022-12-18T13:27:39;8.02;;;4.85;;
17935;SDS011;9093;52.062;4.508;2022-12-18T13:44:44;11.27;;;5.82;;
17935;SDS011;9093;52.062;4.508;2022-12-18T13:47:26;11.85;;;6.28;;
17935;SDS011;9093;52.062;4.508;2022-12-18T13:50:20;6.40;;;5.10;;
17935;SDS011;9093;52.062;4.508;2022-12-18T13:53:04;9.95;;;4.53;;
17935;SDS011;9093;52.062;4.508;2022-12-18T13:55:45;11.93;;;6.70;;
17935;SDS011;9093;52.062;4.508;2022-12-18T13:58:25;15.52;;;6.13;;
17935;SDS011;9093;52.062;4.508;2022-12-18T14:01:15;13.35;;;4.40;;
17935;SDS011;9093;52.062;4.508;2022-12-18T14:07:20;10.13;;;6.28;;
17935;SDS011;9093;52.062;4.508;2022-12-18T14:10:03;5.95;;;4.22;;
17935;SDS011;9093;52.062;4.508;2022-12-18T14:12:46;16.85;;;7.10;;
17935;SDS011;9093;52.062;4.508;2022-12-18T14:15:43;30.65;;;8.88;;
17935;SDS011;9093;52.062;4.508;2022-12-18T14:18:29;15.05;;;7.65;;
17935;SDS011;9093;52.062;4.508;2022-12-18T14:21:25;11.00;;;5.60;;
17935;SDS011;9093;52.062;4.508;2022-12-18T14:26:48;11.10;;;6.13;;
17935;SDS011;9093;52.062;4.508;2022-12-18T14:29:30;21.50;;;8.00;;
17935;SDS011;9093;52.062;4.508;2022-12-18T14:34:52;19.95;;;11.15;;
17935;SDS011;9093;52.062;4.508;2022-12-18T14:37:33;12.60;;;6.13;;
17935;SDS011;9093;52.062;4.508;2022-12-18T14:40:14;13.50;;;6.88;;
17935;SDS011;9093;52.062;4.508;2022-12-18T14:42:54;14.60;;;4.13;;
17935;SDS011;9093;52.062;4.508;2022-12-18T14:45:39;13.45;;;6.18;;
17935;SDS011;9093;52.062;4.508;2022-12-18T14:48:38;13.32;;;6.43;;
17935;SDS011;9093;52.062;4.508;2022-12-18T14:51:23;10.70;;;4.85;;
17935;SDS011;9093;52.062;4.508;2022-12-18T14:54:14;10.40;;;6.13;;
17935;SDS011;9093;52.062;4.508;2022-12-18T14:59:46;15.68;;;5.95;;
17935;SDS011;9093;52.062;4.508;2022-12-18T15:02:26;11.20;;;5.68;;
17935;SDS011;9093;52.062;4.508;2022-12-18T15:05:16;22.43;;;7.80;;
17935;SDS011;9093;52.062;4.508;2022-12-18T15:08:24;8.15;;;4.85;;
17935;SDS011;9093;52.062;4.508;2022-12-18T15:14:22;10.68;;;5.07;;
17935;SDS011;9093;52.062;4.508;2022-12-18T15:17:04;8.70;;;4.60;;
17935;SDS011;9093;52.062;4.508;2022-12-18T15:20:01;13.00;;;7.10;;
17935;SDS011;9093;52.062;4.508;2022-12-18T15:22:48;10.35;;;5.50;;
17935;SDS011;9093;52.062;4.508;2022-12-18T15:25:31;7.20;;;4.47;;
17935;SDS011;9093;52.062;4.508;2022-12-18T15:28:21;14.05;;;6.30;;
17935;SDS011;9093;52.062;4.508;2022-12-18T15:36:33;9.52;;;6.22;;
17935;SDS011;9093;52.062;4.508;2022-12-18T15:39:17;13.32;;;5.70;;
17935;SDS011;9093;52.062;4.508;2022-12-18T15:41:58;13.63;;;6.20;;
17935;SDS011;9093;52.062;4.508;2022-12-18T15:44:59;8.55;;;4.60;;
17935;SDS011;9093;52.062;4.508;2022-12-18T15:47:39;13.05;;;5.85;;
17935;SDS011;9093;52.062;4.508;2022-12-18T15:50:21;9.20;;;4.28;;
17935;SDS011;9093;52.062;4.508;2022-12-18T15:53:02;9.63;;;5.05;;
17935;SDS011;9093;52.062;4.508;2022-12-18T15:55:42;5.35;;;4.03;;
17935;SDS011;9093;52.062;4.508;2022-12-18T15:58:41;10.43;;;6.07;;
17935;SDS011;9093;52.062;4.508;2022-12-18T16:01:31;20.95;;;7.18;;
17935;SDS011;9093;52.062;4.508;2022-12-18T16:04:11;7.13;;;5.13;;
17935;SDS011;9093;52.062;4.508;2022-12-18T16:06:52;7.15;;;5.22;;
17935;SDS011;9093;52.062;4.508;2022-12-18T16:09:33;9.25;;;5.28;;
17935;SDS011;9093;52.062;4.508;2022-12-18T16:12:17;17.60;;;7.32;;
17935;SDS011;9093;52.062;4.508;2022-12-18T16:15:00;8.05;;;5.32;;
17935;SDS011;9093;52.062;4.508;2022-12-18T16:17:44;21.08;;;8.10;;
17935;SDS011;9093;52.062;4.508;2022-12-18T16:20:26;11.68;;;5.72;;
17935;SDS011;9093;52.062;4.508;2022-12-18T16:23:06;14.57;;;6.50;;
17935;SDS011;9093;52.062;4.508;2022-12-18T16:25:47;9.50;;;6.68;;
17935;SDS011;9093;52.062;4.508;2022-12-18T16:28:27;12.60;;;5.55;;
17935;SDS011;9093;52.062;4.508;2022-12-18T16:31:07;15.63;;;6.93;;
17935;SDS011;9093;52.062;4.508;2022-12-18T16:33:48;11.07;;;7.22;;
17935;SDS011;9093;52.062;4.508;2022-12-18T16:36:28;16.77;;;6.97;;
17935;SDS011;9093;52.062;4.508;2022-12-18T16:39:08;13.27;;;6.60;;
17935;SDS011;9093;52.062;4.508;2022-12-18T16:41:49;10.13;;;5.50;;
17935;SDS011;9093;52.062;4.508;2022-12-18T16:44:29;12.90;;;7.70;;
17935;SDS011;9093;52.062;4.508;2022-12-18T16:47:09;9.60;;;5.90;;
17935;SDS011;9093;52.062;4.508;2022-12-18T16:49:50;8.88;;;5.38;;
17935;SDS011;9093;52.062;4.508;2022-12-18T16:52:32;14.80;;;7.47;;
17935;SDS011;9093;52.062;4.508;2022-12-18T16:55:13;11.65;;;6.47;;
17935;SDS011;9093;52.062;4.508;2022-12-18T16:57:53;15.77;;;6.10;;
17935;SDS011;9093;52.062;4.508;2022-12-18T17:00:34;10.82;;;5.97;;
17935;SDS011;9093;52.062;4.508;2022-12-18T17:03:17;18.70;;;6.03;;
17935;SDS011;9093;52.062;4.508;2022-12-18T17:06:01;8.73;;;5.35;;
17935;SDS011;9093;52.062;4.508;2022-12-18T17:08:42;10.63;;;6.80;;
17935;SDS011;9093;52.062;4.508;2022-12-18T17:11:23;25.83;;;8.05;;
17935;SDS011;9093;52.062;4.508;2022-12-18T17:14:05;16.67;;;7.50;;
17935;SDS011;9093;52.062;4.508;2022-12-18T17:16:50;13.10;;;6.35;;
17935;SDS011;9093;52.062;4.508;2022-12-18T17:19:31;10.98;;;6.13;;
17935;SDS011;9093;52.062;4.508;2022-12-18T17:22:11;16.73;;;7.47;;
17935;SDS011;9093;52.062;4.508;2022-12-18T17:24:51;11.02;;;5.85;;
17935;SDS011;9093;52.062;4.508;2022-12-18T17:27:32;15.13;;;6.05;;
17935;SDS011;9093;52.062;4.508;2022-12-18T17:30:12;11.60;;;4.80;;
17935;SDS011;9093;52.062;4.508;2022-12-18T17:32:52;20.73;;;6.57;;
17935;SDS011;9093;52.062;4.508;2022-12-18T17:35:33;10.70;;;6.00;;
17935;SDS011;9093;52.062;4.508;2022-12-18T17:38:13;10.57;;;5.80;;
17935;SDS011;9093;52.062;4.508;2022-12-18T17:40:59;7.80;;;5.15;;
17935;SDS011;9093;52.062;4.508;2022-12-18T17:43:40;12.02;;;6.38;;
17935;SDS011;9093;52.062;4.508;2022-12-18T17:46:25;13.43;;;7.38;;
17935;SDS011;9093;52.062;4.508;2022-12-18T17:49:06;10.18;;;5.53;;
17935;SDS011;9093;52.062;4.508;2022-12-18T17:51:47;12.80;;;6.10;;
17935;SDS011;9093;52.062;4.508;2022-12-18T17:54:27;13.75;;;7.03;;
17935;SDS011;9093;52.062;4.508;2022-12-18T17:57:08;14.15;;;7.78;;
17935;SDS011;9093;52.062;4.508;2022-12-18T17:59:49;11.25;;;5.32;;
17935;SDS011;9093;52.062;4.508;2022-12-18T18:02:29;12.32;;;6.13;;
17935;SDS011;9093;52.062;4.508;2022-12-18T18:05:10;12.45;;;6.72;;
17935;SDS011;9093;52.062;4.508;2022-12-18T18:07:51;7.65;;;4.68;;
17935;SDS011;9093;52.062;4.508;2022-12-18T18:10:34;14.95;;;6.50;;
17935;SDS011;9093;52.062;4.508;2022-12-18T18:13:20;19.17;;;6.85;;
17935;SDS011;9093;52.062;4.508;2022-12-18T18:16:23;20.92;;;7.85;;
17935;SDS011;9093;52.062;4.508;2022-12-18T18:19:14;16.20;;;6.43;;
17935;SDS011;9093;52.062;4.508;2022-12-18T18:22:01;15.65;;;5.90;;
17935;SDS011;9093;52.062;4.508;2022-12-18T18:24:42;11.32;;;5.75;;
17935;SDS011;9093;52.062;4.508;2022-12-18T18:27:22;12.85;;;5.57;;
17935;SDS011;9093;52.062;4.508;2022-12-18T18:30:03;26.10;;;6.93;;
17935;SDS011;9093;52.062;4.508;2022-12-18T18:32:43;13.18;;;6.88;;
17935;SDS011;9093;52.062;4.508;2022-12-18T18:35:23;12.05;;;6.30;;